createdAt,value
2023-04-18T00:02:59.186Z,4.10
2023-04-18T00:06:35.974Z,5.07
2023-04-18T00:10:08.449Z,4.05
2023-04-18T00:13:40.642Z,5.03
2023-04-18T00:17:13.431Z,5.07
2023-04-18T00:20:46.182Z,4.70
2023-04-18T00:24:18.191Z,5.33
2023-04-18T00:27:50.283Z,5.05
2023-04-18T00:31:22.134Z,5.05
2023-04-18T00:34:54.230Z,5.60
2023-04-18T00:38:26.152Z,5.57
2023-04-18T00:41:58.240Z,5.90
2023-04-18T00:45:30.128Z,6.47
2023-04-18T00:49:02.427Z,6.40
2023-04-18T00:52:36.001Z,6.35
2023-04-18T00:56:08.312Z,6.90
2023-04-18T00:59:40.680Z,6.63
2023-04-18T01:03:14.563Z,6.15
2023-04-18T01:06:46.987Z,6.47
2023-04-18T01:10:19.475Z,6.60
2023-04-18T01:14:08.321Z,6.90
2023-04-18T01:17:40.843Z,6.97
2023-04-18T01:21:12.679Z,6.18
2023-04-18T01:24:44.656Z,6.87
2023-04-18T01:28:16.648Z,7.05
2023-04-18T01:31:48.702Z,6.93
2023-04-18T01:35:20.427Z,7.03
2023-04-18T01:38:52.770Z,6.32
2023-04-18T01:42:24.484Z,7.03
2023-04-18T01:45:56.475Z,6.37
2023-04-18T01:49:28.234Z,7.97
2023-04-18T01:53:00.238Z,7.60
2023-04-18T01:56:32.065Z,7.63
2023-04-18T02:00:06.249Z,7.40
2023-04-18T02:03:38.218Z,7.57
2023-04-18T02:07:10.355Z,7.68
2023-04-18T02:10:42.669Z,6.77
2023-04-18T02:14:14.833Z,6.78
2023-04-18T02:17:46.807Z,7.13
2023-04-18T02:21:18.801Z,7.20
2023-04-18T02:24:50.604Z,8.20
2023-04-18T02:28:22.652Z,7.53
2023-04-18T02:31:54.679Z,7.80
2023-04-18T02:35:27.353Z,7.37
2023-04-18T02:38:59.591Z,7.95
2023-04-18T02:42:31.530Z,8.00
2023-04-18T02:46:03.644Z,7.40
2023-04-18T02:49:35.777Z,7.65
2023-04-18T02:53:07.563Z,7.35
2023-04-18T02:56:39.924Z,7.53
2023-04-18T03:00:13.679Z,7.75
2023-04-18T03:03:45.802Z,7.78
2023-04-18T03:07:17.413Z,7.40
2023-04-18T03:10:49.521Z,8.17
2023-04-18T03:14:21.159Z,8.90
2023-04-18T03:17:53.154Z,8.13
2023-04-18T03:21:24.848Z,7.67
2023-04-18T03:24:56.898Z,8.07
2023-04-18T03:28:29.040Z,7.40
2023-04-18T03:32:00.850Z,7.97
2023-04-18T03:35:33.019Z,7.22
2023-04-18T03:39:04.997Z,8.52
2023-04-18T03:42:37.048Z,8.10
2023-04-18T03:46:08.955Z,8.07
2023-04-18T03:49:41.246Z,8.13
2023-04-18T03:53:14.473Z,7.32
2023-04-18T03:56:46.435Z,8.37
2023-04-18T04:00:18.613Z,8.48
2023-04-18T04:03:50.689Z,7.75
2023-04-18T04:07:23.038Z,8.43
2023-04-18T04:10:54.956Z,8.40
2023-04-18T04:14:27.098Z,7.38
2023-04-18T04:17:59.218Z,7.40
2023-04-18T04:21:31.488Z,8.57
2023-04-18T04:25:04.877Z,8.45
2023-04-18T04:28:38.988Z,7.68
2023-04-18T04:32:10.893Z,7.70
2023-04-18T04:35:43.568Z,8.30
2023-04-18T04:39:15.970Z,7.68
2023-04-18T04:42:49.194Z,7.67
2023-04-18T04:46:21.611Z,7.88
2023-04-18T04:49:54.252Z,7.38
2023-04-18T04:53:30.221Z,8.55
2023-04-18T04:57:02.603Z,7.60
2023-04-18T05:00:34.726Z,7.47
2023-04-18T05:04:06.506Z,8.00
2023-04-18T05:07:38.529Z,6.77
2023-04-18T05:11:10.310Z,6.97
2023-04-18T05:14:42.927Z,7.78
2023-04-18T05:18:14.788Z,7.87
2023-04-18T05:21:46.812Z,7.03
2023-04-18T05:25:18.938Z,7.22
2023-04-18T05:28:50.729Z,7.85
2023-04-18T05:32:23.017Z,7.07
2023-04-18T05:35:55.736Z,7.13
2023-04-18T05:39:27.597Z,6.97
2023-04-18T05:43:01.015Z,6.80
2023-04-18T05:46:33.319Z,6.95
2023-04-18T05:50:06.290Z,6.82
2023-04-18T05:53:38.326Z,6.35
2023-04-18T05:57:10.273Z,6.87
2023-04-18T06:00:42.725Z,7.20
2023-04-18T06:04:14.875Z,6.78
2023-04-18T06:07:48.190Z,6.40
2023-04-18T06:11:23.194Z,6.93
2023-04-18T06:14:55.241Z,6.40
2023-04-18T06:18:27.039Z,7.37
2023-04-18T06:21:59.136Z,6.70
2023-04-18T06:25:30.720Z,6.82
2023-04-18T06:29:02.926Z,6.53
2023-04-18T06:32:34.638Z,7.00
2023-04-18T06:36:07.405Z,6.50
2023-04-18T06:39:40.697Z,6.47
2023-04-18T06:43:12.863Z,6.70
2023-04-18T06:46:45.120Z,7.43
2023-04-18T06:50:17.061Z,7.78
2023-04-18T06:53:52.603Z,7.60
2023-04-18T06:57:24.575Z,7.63
2023-04-18T07:00:56.783Z,7.28
2023-04-18T07:04:28.980Z,6.63
2023-04-18T07:08:01.049Z,7.13
2023-04-18T07:11:32.767Z,7.57
2023-04-18T07:15:05.093Z,6.38
2023-04-18T07:18:38.299Z,7.30
2023-04-18T07:22:11.168Z,6.87
2023-04-18T07:25:43.214Z,7.18
2023-04-18T07:29:14.905Z,7.55
2023-04-18T07:32:47.569Z,6.97
2023-04-18T07:36:19.577Z,7.60
2023-04-18T07:39:52.131Z,7.13
2023-04-18T07:43:24.292Z,7.22
2023-04-18T07:46:55.950Z,6.63
2023-04-18T07:50:28.369Z,6.47
2023-04-18T07:54:00.863Z,6.40
2023-04-18T07:57:33.128Z,6.43
2023-04-18T08:01:06.218Z,6.57
2023-04-18T08:04:38.103Z,7.70
2023-04-18T08:08:11.902Z,6.65
2023-04-18T08:11:43.703Z,7.07
2023-04-18T08:15:15.772Z,6.27
2023-04-18T08:18:47.688Z,6.85
2023-04-18T08:22:19.624Z,6.47
2023-04-18T08:25:51.597Z,6.22
2023-04-18T08:29:23.609Z,6.67
2023-04-18T08:32:55.359Z,7.35
2023-04-18T08:36:28.128Z,6.55
2023-04-18T08:40:00.062Z,7.47
2023-04-18T08:43:32.005Z,6.43
2023-04-18T08:47:04.061Z,6.88
2023-04-18T08:50:36.311Z,6.65
2023-04-18T08:54:09.510Z,7.60
2023-04-18T08:57:41.246Z,7.53
2023-04-18T09:01:13.805Z,6.78
2023-04-18T09:04:49.164Z,7.05
2023-04-18T09:08:24.053Z,7.80
2023-04-18T09:12:09.278Z,6.53
2023-04-18T09:15:41.596Z,7.03
2023-04-18T09:19:18.639Z,6.93
2023-04-18T09:22:52.441Z,7.17
2023-04-18T09:26:35.387Z,6.65
2023-04-18T09:30:08.131Z,7.20
2023-04-18T09:33:56.705Z,7.03
2023-04-18T09:37:29.552Z,7.13
2023-04-18T09:41:11.985Z,6.25
2023-04-18T09:45:03.590Z,6.65
2023-04-18T09:48:35.972Z,7.27
2023-04-18T09:52:08.868Z,6.70
2023-04-18T09:55:42.382Z,7.53
2023-04-18T09:59:21.121Z,6.43
2023-04-18T10:03:00.529Z,7.03
2023-04-18T10:06:39.826Z,6.70
2023-04-18T10:10:12.867Z,6.97
2023-04-18T10:13:48.155Z,6.40
2023-04-18T10:17:20.431Z,6.50
2023-04-18T10:21:01.989Z,7.25
2023-04-18T10:24:49.634Z,6.45
2023-04-18T10:28:21.914Z,6.88
2023-04-18T10:31:54.112Z,6.43
2023-04-18T10:35:26.574Z,6.25
2023-04-18T10:39:21.678Z,7.07
2023-04-18T10:42:53.990Z,6.60
2023-04-18T10:46:32.559Z,5.83
2023-04-18T10:50:07.043Z,6.70
2023-04-18T10:53:39.325Z,5.95
2023-04-18T10:57:12.049Z,6.03
2023-04-18T11:00:44.591Z,6.40
2023-04-18T11:04:17.152Z,5.43
2023-04-18T11:07:49.355Z,5.32
2023-04-18T11:11:21.811Z,5.17
2023-04-18T11:14:54.447Z,6.17
2023-04-18T11:18:26.509Z,5.55
2023-04-18T11:22:01.224Z,5.55
2023-04-18T11:25:37.002Z,6.20
2023-04-18T11:29:08.958Z,5.70
2023-04-18T11:32:41.140Z,5.45
2023-04-18T11:36:13.873Z,5.97
2023-04-18T11:39:46.026Z,5.97
2023-04-18T11:43:23.263Z,6.30
2023-04-18T11:46:55.576Z,6.03
2023-04-18T11:50:27.695Z,5.43
2023-04-18T11:53:59.384Z,5.50
2023-04-18T11:57:33.096Z,5.67
2023-04-18T12:01:21.812Z,5.88
2023-04-18T12:05:00.159Z,5.13
2023-04-18T12:08:32.925Z,5.33
2023-04-18T12:12:05.442Z,6.03
2023-04-18T12:15:43.493Z,5.97
2023-04-18T12:19:15.770Z,6.15
2023-04-18T12:22:49.596Z,5.07
2023-04-18T12:26:24.682Z,4.80
2023-04-18T12:29:56.646Z,5.32
2023-04-18T12:33:28.720Z,4.90
2023-04-18T12:37:00.973Z,5.70
2023-04-18T12:40:36.001Z,5.20
2023-04-18T12:44:07.751Z,5.72
2023-04-18T12:47:41.662Z,4.88
2023-04-18T12:51:13.445Z,5.33
2023-04-18T12:54:45.525Z,5.17
2023-04-18T12:58:18.734Z,5.35
2023-04-18T13:01:51.292Z,4.82
2023-04-18T13:05:29.799Z,5.60
2023-04-18T13:09:04.672Z,5.37
2023-04-18T13:12:37.275Z,5.70
2023-04-18T13:16:09.287Z,5.68
2023-04-18T13:19:41.706Z,4.60
2023-04-18T13:23:13.434Z,5.40
2023-04-18T13:26:45.566Z,5.60
2023-04-18T13:30:17.715Z,4.68
2023-04-18T13:33:49.648Z,4.88
2023-04-18T13:37:21.453Z,5.33
2023-04-18T13:41:08.615Z,5.30
2023-04-18T13:44:44.119Z,5.40
2023-04-18T13:48:16.609Z,4.53
2023-04-18T13:51:50.691Z,5.00
2023-04-18T13:55:22.777Z,4.70
2023-04-18T13:58:55.378Z,5.68
2023-04-18T14:02:28.029Z,4.78
2023-04-18T14:06:00.161Z,5.10
2023-04-18T14:09:32.076Z,5.20
2023-04-18T14:13:04.121Z,5.13
2023-04-18T14:16:36.182Z,5.83
2023-04-18T14:20:08.947Z,5.57
2023-04-18T14:23:40.709Z,7.15
2023-04-18T14:27:12.836Z,5.63
2023-04-18T14:30:44.826Z,6.00
2023-04-18T14:34:16.449Z,5.57
2023-04-18T14:37:48.603Z,6.50
2023-04-18T14:41:20.450Z,5.65
2023-04-18T14:44:52.412Z,5.70
2023-04-18T14:48:24.174Z,6.27
2023-04-18T14:51:56.418Z,5.20
2023-04-18T14:55:28.109Z,4.80
2023-04-18T14:59:00.623Z,5.17
2023-04-18T15:02:32.936Z,4.73
2023-04-18T15:06:05.053Z,5.82
2023-04-18T15:09:37.869Z,5.85
2023-04-18T15:13:11.194Z,5.13
2023-04-18T15:16:43.217Z,5.90
2023-04-18T15:20:15.072Z,5.97
2023-04-18T15:23:47.256Z,8.02
2023-04-18T15:27:19.282Z,6.50
2023-04-18T15:30:51.101Z,6.27
2023-04-18T15:34:23.315Z,6.05
2023-04-18T15:37:55.026Z,5.35
2023-04-18T15:41:27.122Z,5.67
2023-04-18T15:44:59.026Z,5.50
2023-04-18T15:48:34.169Z,5.45
2023-04-18T15:52:06.943Z,5.20
2023-04-18T15:55:38.711Z,5.30
2023-04-18T15:59:11.561Z,5.53
2023-04-18T16:02:45.139Z,5.82
2023-04-18T16:06:21.236Z,5.63
2023-04-18T16:09:53.420Z,5.13
2023-04-18T16:13:25.476Z,4.97
2023-04-18T16:16:59.010Z,6.28
2023-04-18T16:20:33.212Z,6.10
2023-04-18T16:24:05.426Z,5.73
2023-04-18T16:27:37.841Z,5.13
2023-04-18T16:31:09.621Z,5.13
2023-04-18T16:34:42.020Z,5.50
2023-04-18T16:38:14.478Z,4.70
2023-04-18T16:41:46.271Z,4.47
2023-04-18T16:45:18.820Z,4.95
2023-04-18T16:48:52.705Z,5.10
2023-04-18T16:52:25.005Z,5.57
2023-04-18T16:55:56.881Z,5.68
2023-04-18T16:59:29.034Z,5.63
2023-04-18T17:03:01.510Z,5.73
2023-04-18T17:06:34.023Z,5.00
2023-04-18T17:10:07.804Z,5.80
2023-04-18T17:13:41.777Z,5.80
2023-04-18T17:17:15.431Z,7.60
2023-04-18T17:20:47.793Z,7.30
2023-04-18T17:24:22.375Z,7.38
2023-04-18T17:27:54.335Z,9.50
2023-04-18T17:31:26.241Z,8.47
2023-04-18T17:34:58.409Z,6.65
2023-04-18T17:38:30.147Z,6.45
2023-04-18T17:42:02.279Z,5.85
2023-04-18T17:45:34.445Z,6.10
2023-04-18T17:49:07.574Z,6.07
2023-04-18T17:52:39.562Z,7.05
2023-04-18T17:56:11.542Z,6.57
2023-04-18T17:59:43.502Z,5.37
2023-04-18T18:03:16.440Z,5.90
2023-04-18T18:06:59.415Z,5.57
2023-04-18T18:10:31.662Z,5.67
2023-04-18T18:14:03.711Z,5.53
2023-04-18T18:17:35.847Z,5.95
2023-04-18T18:21:07.606Z,6.32
2023-04-18T18:24:40.109Z,5.90
2023-04-18T18:28:11.906Z,5.97
2023-04-18T18:31:45.967Z,5.57
2023-04-18T18:35:18.128Z,5.28
2023-04-18T18:38:50.063Z,4.93
2023-04-18T18:42:22.586Z,5.10
2023-04-18T18:45:54.317Z,5.60
2023-04-18T18:49:26.799Z,5.45
2023-04-18T18:52:58.610Z,4.97
2023-04-18T18:56:30.796Z,5.25
2023-04-18T19:00:09.782Z,5.25
2023-04-18T19:03:41.576Z,5.80
2023-04-18T19:07:13.744Z,5.90
2023-04-18T19:10:45.516Z,5.95
2023-04-18T19:14:17.547Z,5.78
2023-04-18T19:17:50.090Z,6.10
2023-04-18T19:21:22.421Z,6.50
2023-04-18T19:24:54.451Z,5.78
2023-04-18T19:28:26.414Z,6.03
2023-04-18T19:31:58.600Z,5.67
2023-04-18T19:35:32.734Z,5.05
2023-04-18T19:39:04.929Z,6.28
2023-04-18T19:42:37.086Z,6.80
2023-04-18T19:46:09.169Z,6.73
2023-04-18T19:49:41.011Z,5.75
2023-04-18T19:53:13.033Z,6.00
2023-04-18T19:56:44.742Z,5.60
2023-04-18T20:00:17.133Z,6.00
2023-04-18T20:03:49.014Z,5.82
2023-04-18T20:07:21.229Z,6.35
2023-04-18T20:10:53.066Z,6.53
2023-04-18T20:14:25.411Z,6.65
2023-04-18T20:17:57.237Z,6.05
2023-04-18T20:21:29.511Z,5.30
2023-04-18T20:25:01.563Z,6.57
2023-04-18T20:28:33.714Z,6.78
2023-04-18T20:32:06.184Z,6.45
2023-04-18T20:35:38.327Z,5.80
2023-04-18T20:39:10.533Z,5.63
2023-04-18T20:42:42.674Z,6.53
2023-04-18T20:46:14.701Z,6.72
2023-04-18T20:49:47.091Z,5.57
2023-04-18T20:53:26.764Z,6.05
2023-04-18T20:56:58.410Z,5.95
2023-04-18T21:00:30.458Z,6.50
2023-04-18T21:04:02.415Z,5.75
2023-04-18T21:07:35.690Z,5.72
2023-04-18T21:11:08.407Z,6.43
2023-04-18T21:14:40.214Z,5.17
2023-04-18T21:18:12.436Z,5.78
2023-04-18T21:21:44.109Z,5.68
2023-04-18T21:25:16.555Z,6.07
2023-04-18T21:28:58.695Z,6.13
2023-04-18T21:32:30.798Z,5.47
2023-04-18T21:36:02.847Z,5.88
2023-04-18T21:39:34.480Z,5.53
2023-04-18T21:43:06.546Z,5.93
2023-04-18T21:46:38.358Z,6.28
2023-04-18T21:50:10.941Z,5.67
2023-04-18T21:53:43.188Z,5.13
2023-04-18T21:57:15.239Z,5.72
2023-04-18T22:00:47.270Z,5.63
2023-04-18T22:04:21.131Z,5.10
2023-04-18T22:07:58.248Z,5.68
2023-04-18T22:11:30.677Z,6.07
2023-04-18T22:15:04.242Z,5.60
2023-04-18T22:18:37.612Z,4.73
2023-04-18T22:22:10.389Z,4.82
2023-04-18T22:25:42.569Z,4.70
2023-04-18T22:29:14.625Z,4.43
2023-04-18T22:32:46.700Z,5.35
2023-04-18T22:36:19.458Z,5.57
2023-04-18T22:39:51.635Z,5.27
2023-04-18T22:43:24.318Z,4.97
2023-04-18T22:46:56.422Z,4.82
2023-04-18T22:50:30.176Z,5.70
2023-04-18T22:54:02.218Z,3.37
2023-04-18T22:57:34.625Z,3.30
2023-04-18T23:01:06.812Z,3.30
2023-04-18T23:04:39.956Z,2.70
2023-04-18T23:08:12.726Z,2.72
2023-04-18T23:11:44.821Z,2.50
2023-04-18T23:15:17.034Z,2.23
2023-04-18T23:18:49.059Z,2.13
2023-04-18T23:22:21.386Z,3.05
2023-04-18T23:25:53.793Z,1.85
2023-04-18T23:29:25.456Z,2.10
2023-04-18T23:32:57.663Z,2.10
2023-04-18T23:36:29.852Z,2.33
2023-04-18T23:40:02.409Z,1.93
2023-04-18T23:43:35.259Z,1.75
2023-04-18T23:47:07.291Z,1.88
2023-04-18T23:50:47.745Z,1.87
2023-04-18T23:54:19.694Z,2.83
2023-04-18T23:57:51.430Z,1.77
